createdAt,value
2022-12-18T00:01:37.310Z,10.02
2022-12-18T00:04:06.041Z,10.95
2022-12-18T00:06:34.718Z,11.05
2022-12-18T00:09:03.235Z,9.52
2022-12-18T00:11:31.602Z,10.68
2022-12-18T00:14:01.252Z,10.57
2022-12-18T00:16:29.291Z,10.50
2022-12-18T00:18:58.924Z,10.55
2022-12-18T00:21:26.128Z,11.45
2022-12-18T00:23:55.365Z,10.23
2022-12-18T00:26:27.782Z,10.50
2022-12-18T00:28:56.566Z,11.55
2022-12-18T00:31:25.555Z,9.25
2022-12-18T00:33:55.531Z,10.52
2022-12-18T00:36:27.540Z,8.80
2022-12-18T00:38:58.363Z,9.57
2022-12-18T00:41:44.750Z,8.98
2022-12-18T00:44:13.959Z,10.80
2022-12-18T00:46:41.124Z,10.50
2022-12-18T00:49:14.310Z,10.70
2022-12-18T00:51:41.080Z,10.45
2022-12-18T00:54:07.868Z,10.73
2022-12-18T00:56:48.364Z,10.75
2022-12-18T00:59:21.050Z,10.63
2022-12-18T01:01:48.226Z,10.77
2022-12-18T01:04:17.390Z,11.38
2022-12-18T01:06:44.773Z,11.02
2022-12-18T01:09:11.465Z,10.20
2022-12-18T01:11:38.195Z,10.10
2022-12-18T01:14:07.996Z,10.68
2022-12-18T01:16:39.720Z,7.40
2022-12-18T01:19:06.731Z,10.45
2022-12-18T01:21:33.578Z,9.75
2022-12-18T01:24:00.408Z,10.75
2022-12-18T01:26:28.347Z,9.75
2022-12-18T01:28:59.107Z,11.18
2022-12-18T01:31:33.797Z,11.30
2022-12-18T01:34:05.318Z,11.33
2022-12-18T01:36:34.950Z,11.65
2022-12-18T01:39:05.939Z,11.70
2022-12-18T01:41:54.911Z,9.50
2022-12-18T01:44:52.317Z,12.13
2022-12-18T01:47:21.340Z,10.73
2022-12-18T01:49:48.067Z,10.20
2022-12-18T01:52:15.274Z,11.07
2022-12-18T01:54:47.275Z,11.05
2022-12-18T01:57:16.777Z,12.43
2022-12-18T01:59:46.174Z,8.88
2022-12-18T02:02:13.241Z,10.68
2022-12-18T02:04:47.811Z,10.98
2022-12-18T02:07:40.421Z,10.60
2022-12-18T02:10:22.182Z,10.18
2022-12-18T02:13:02.621Z,11.25
2022-12-18T02:15:51.994Z,11.00
2022-12-18T02:18:34.472Z,11.73
2022-12-18T02:21:33.113Z,5.57
2022-12-18T02:24:23.961Z,10.30
2022-12-18T02:27:06.242Z,11.00
2022-12-18T02:29:57.665Z,11.90
2022-12-18T02:32:38.819Z,11.77
2022-12-18T02:35:14.205Z,12.05
2022-12-18T02:37:46.064Z,12.00
2022-12-18T02:40:15.082Z,11.73
2022-12-18T02:42:41.857Z,11.23
2022-12-18T02:45:08.955Z,11.77
2022-12-18T02:47:44.202Z,11.52
2022-12-18T02:50:32.040Z,9.98
2022-12-18T02:53:34.797Z,10.85
2022-12-18T02:56:21.041Z,10.90
2022-12-18T02:59:16.920Z,10.23
2022-12-18T03:01:53.309Z,12.63
2022-12-18T03:04:32.689Z,10.77
2022-12-18T03:07:03.866Z,11.73
2022-12-18T03:09:39.816Z,10.68
2022-12-18T03:12:25.929Z,9.15
2022-12-18T03:17:34.838Z,11.10
2022-12-18T03:20:08.489Z,11.32
2022-12-18T03:22:37.889Z,11.75
2022-12-18T03:25:08.720Z,11.18
2022-12-18T03:27:39.972Z,10.07
2022-12-18T03:30:13.234Z,10.43
2022-12-18T03:32:51.522Z,11.00
2022-12-18T03:35:23.786Z,11.23
2022-12-18T03:37:55.331Z,12.25
2022-12-18T03:40:32.456Z,11.77
2022-12-18T03:43:14.906Z,8.88
2022-12-18T03:45:53.892Z,10.65
2022-12-18T03:48:36.443Z,11.00
2022-12-18T03:51:31.599Z,10.75
2022-12-18T03:54:09.367Z,11.45
2022-12-18T03:56:45.112Z,10.70
2022-12-18T03:59:14.882Z,11.25
2022-12-18T04:01:47.399Z,9.65
2022-12-18T04:04:16.246Z,11.90
2022-12-18T04:06:51.215Z,11.13
2022-12-18T04:09:21.715Z,11.25
2022-12-18T04:11:52.538Z,10.75
2022-12-18T04:14:21.416Z,11.43
2022-12-18T04:16:50.745Z,9.55
2022-12-18T04:19:17.480Z,12.23
2022-12-18T04:21:44.149Z,12.57
2022-12-18T04:24:10.826Z,13.18
2022-12-18T04:26:37.580Z,12.52
2022-12-18T04:29:04.378Z,12.25
2022-12-18T04:31:31.139Z,12.43
2022-12-18T04:33:57.856Z,12.05
2022-12-18T04:36:24.552Z,11.25
2022-12-18T04:38:53.768Z,11.48
2022-12-18T04:41:20.563Z,13.48
2022-12-18T04:43:47.440Z,11.80
2022-12-18T04:46:14.511Z,8.48
2022-12-18T04:48:41.389Z,10.95
2022-12-18T04:51:08.488Z,12.65
2022-12-18T04:53:35.199Z,10.52
2022-12-18T04:56:12.640Z,9.52
2022-12-18T04:58:41.143Z,10.85
2022-12-18T05:01:10.798Z,11.85
2022-12-18T05:03:40.987Z,12.10
2022-12-18T05:06:08.528Z,11.50
2022-12-18T05:08:35.495Z,12.75
2022-12-18T05:11:04.562Z,13.15
2022-12-18T05:13:33.131Z,12.02
2022-12-18T05:16:00.289Z,11.55
2022-12-18T05:18:27.092Z,12.32
2022-12-18T05:20:54.904Z,10.02
2022-12-18T05:23:23.831Z,11.77
2022-12-18T05:26:02.240Z,13.25
2022-12-18T05:28:31.090Z,12.23
2022-12-18T05:31:01.057Z,13.05
2022-12-18T05:33:33.048Z,12.77
2022-12-18T05:36:02.076Z,12.07
2022-12-18T05:38:29.948Z,13.27
2022-12-18T05:40:57.260Z,13.63
2022-12-18T05:43:27.428Z,12.45
2022-12-18T05:45:54.919Z,13.05
2022-12-18T05:48:24.885Z,13.63
2022-12-18T05:50:51.860Z,14.18
2022-12-18T05:53:20.804Z,12.60
2022-12-18T05:55:48.064Z,11.88
2022-12-18T05:58:16.664Z,13.10
2022-12-18T06:00:46.062Z,12.80
2022-12-18T06:03:16.604Z,13.70
2022-12-18T06:05:45.449Z,11.45
2022-12-18T06:08:17.816Z,14.63
2022-12-18T06:10:52.202Z,13.10
2022-12-18T06:13:19.416Z,13.30
2022-12-18T06:15:48.578Z,13.00
2022-12-18T06:18:17.447Z,12.63
2022-12-18T06:20:44.123Z,13.68
2022-12-18T06:23:10.801Z,12.95
2022-12-18T06:25:41.663Z,7.53
2022-12-18T06:28:08.381Z,12.68
2022-12-18T06:30:37.622Z,14.25
2022-12-18T06:33:08.902Z,12.30
2022-12-18T06:35:35.635Z,9.32
2022-12-18T06:38:03.474Z,14.15
2022-12-18T06:40:33.306Z,14.15
2022-12-18T06:43:00.054Z,11.27
2022-12-18T06:45:26.907Z,11.77
2022-12-18T06:47:54.862Z,10.45
2022-12-18T06:50:23.675Z,10.45
2022-12-18T06:52:52.593Z,9.45
2022-12-18T06:55:19.694Z,10.98
2022-12-18T06:57:46.345Z,13.70
2022-12-18T07:00:15.832Z,13.30
2022-12-18T07:02:42.731Z,14.75
2022-12-18T07:05:11.770Z,12.95
2022-12-18T07:07:38.824Z,10.57
2022-12-18T07:10:08.171Z,11.88
2022-12-18T07:12:37.408Z,13.40
2022-12-18T07:15:07.350Z,14.75
2022-12-18T07:17:34.054Z,11.13
2022-12-18T07:20:00.721Z,12.80
2022-12-18T07:22:27.733Z,11.98
2022-12-18T07:24:56.934Z,11.00
2022-12-18T07:27:23.898Z,12.05
2022-12-18T07:29:50.649Z,13.40
2022-12-18T07:32:17.513Z,11.30
2022-12-18T07:34:44.198Z,11.73
2022-12-18T07:37:10.943Z,10.25
2022-12-18T07:39:37.592Z,11.98
2022-12-18T07:42:23.234Z,11.52
2022-12-18T07:44:52.399Z,12.50
2022-12-18T07:47:21.576Z,13.13
2022-12-18T07:49:48.266Z,11.30
2022-12-18T07:52:15.080Z,9.40
2022-12-18T07:54:41.898Z,13.32
2022-12-18T07:57:16.477Z,12.00
2022-12-18T07:59:54.047Z,12.95
2022-12-18T08:02:20.825Z,12.65
2022-12-18T08:04:48.616Z,12.60
2022-12-18T08:07:15.346Z,13.90
2022-12-18T08:09:44.234Z,12.20
2022-12-18T08:12:10.906Z,14.13
2022-12-18T08:14:37.831Z,13.20
2022-12-18T08:17:04.498Z,11.98
2022-12-18T08:19:31.308Z,11.68
2022-12-18T08:22:00.131Z,13.20
2022-12-18T08:24:31.683Z,10.50
2022-12-18T08:27:30.734Z,12.60
2022-12-18T08:29:49.627Z,11.75
2022-12-18T08:32:18.639Z,9.80
2022-12-18T08:34:45.391Z,7.95
2022-12-18T08:37:14.554Z,13.25
2022-12-18T08:39:41.259Z,14.70
2022-12-18T08:42:26.539Z,11.90
2022-12-18T08:44:53.200Z,9.25
2022-12-18T08:47:19.874Z,12.50
2022-12-18T08:49:46.568Z,12.10
2022-12-18T08:52:15.396Z,11.30
2022-12-18T08:54:42.072Z,12.25
2022-12-18T08:57:11.207Z,13.20
2022-12-18T08:59:38.046Z,9.32
2022-12-18T09:02:04.788Z,12.77
2022-12-18T09:04:31.695Z,12.63
2022-12-18T09:07:00.711Z,13.30
2022-12-18T09:09:27.866Z,12.68
2022-12-18T09:11:59.452Z,13.70
2022-12-18T09:14:26.084Z,13.30
2022-12-18T09:16:52.854Z,13.63
2022-12-18T09:19:19.532Z,12.05
2022-12-18T09:21:48.695Z,14.23
2022-12-18T09:24:24.287Z,14.43
2022-12-18T09:26:57.873Z,6.00
2022-12-18T09:29:29.811Z,9.02
2022-12-18T09:31:56.602Z,15.55
2022-12-18T09:34:25.702Z,13.07
2022-12-18T09:36:52.452Z,11.40
2022-12-18T09:39:19.110Z,12.88
2022-12-18T09:41:57.905Z,11.68
2022-12-18T09:44:32.645Z,10.35
2022-12-18T09:47:14.650Z,10.77
2022-12-18T09:49:45.323Z,11.13
2022-12-18T09:52:40.572Z,13.75
2022-12-18T09:55:35.100Z,10.90
2022-12-18T10:00:34.418Z,12.50
2022-12-18T10:03:13.342Z,12.27
2022-12-18T10:06:14.202Z,11.93
2022-12-18T10:08:52.582Z,12.48
2022-12-18T10:11:47.246Z,10.80
2022-12-18T10:14:40.077Z,11.32
2022-12-18T10:17:13.935Z,13.65
2022-12-18T10:20:01.923Z,11.60
2022-12-18T10:22:58.137Z,12.63
2022-12-18T10:25:42.034Z,12.55
2022-12-18T10:28:13.730Z,13.18
2022-12-18T10:30:42.200Z,12.82
2022-12-18T10:33:15.047Z,11.30
2022-12-18T10:35:43.231Z,11.05
2022-12-18T10:38:17.092Z,9.73
2022-12-18T10:40:53.354Z,11.50
2022-12-18T10:43:37.364Z,12.68
2022-12-18T10:46:10.217Z,12.27
2022-12-18T10:48:40.404Z,12.52
2022-12-18T10:51:12.821Z,13.48
2022-12-18T10:53:42.867Z,11.68
2022-12-18T10:56:11.999Z,13.48
2022-12-18T10:58:40.329Z,14.23
2022-12-18T11:01:21.057Z,12.73
2022-12-18T11:04:02.737Z,12.15
2022-12-18T11:06:30.676Z,11.63
2022-12-18T11:09:12.257Z,8.52
2022-12-18T11:11:41.285Z,13.55
2022-12-18T11:14:18.951Z,10.40
2022-12-18T11:17:23.892Z,11.85
2022-12-18T11:19:42.001Z,11.45
2022-12-18T11:22:23.976Z,11.25
2022-12-18T11:25:30.883Z,11.35
2022-12-18T11:27:57.440Z,10.32
2022-12-18T11:30:25.838Z,12.60
2022-12-18T11:33:01.262Z,10.85
2022-12-18T11:35:55.130Z,11.77
2022-12-18T11:38:36.766Z,13.18
2022-12-18T11:41:22.269Z,11.80
2022-12-18T11:43:56.852Z,11.77
2022-12-18T11:46:34.643Z,11.77
2022-12-18T11:49:23.609Z,11.30
2022-12-18T11:51:53.023Z,11.40
2022-12-18T11:54:19.768Z,11.95
2022-12-18T11:57:12.406Z,12.77
2022-12-18T12:00:02.771Z,11.45
2022-12-18T12:02:53.483Z,7.85
2022-12-18T12:05:56.353Z,13.85
2022-12-18T12:08:42.025Z,8.57
2022-12-18T12:11:17.496Z,14.35
2022-12-18T12:14:18.485Z,11.07
2022-12-18T12:16:51.300Z,11.45
2022-12-18T12:19:43.863Z,11.25
2022-12-18T12:22:37.955Z,11.18
2022-12-18T12:25:10.627Z,12.30
2022-12-18T12:27:49.409Z,14.63
2022-12-18T12:30:18.904Z,11.25
2022-12-18T12:33:11.977Z,13.45
2022-12-18T12:35:53.436Z,11.43
2022-12-18T12:38:29.239Z,11.93
2022-12-18T12:41:03.388Z,14.23
2022-12-18T12:43:47.873Z,13.63
2022-12-18T12:46:20.643Z,10.45
2022-12-18T12:48:58.558Z,13.20
2022-12-18T12:51:39.907Z,11.70
2022-12-18T12:54:16.626Z,14.32
2022-12-18T12:57:00.602Z,13.57
2022-12-18T12:59:59.088Z,13.73
2022-12-18T13:02:43.098Z,13.18
2022-12-18T13:05:16.020Z,13.40
2022-12-18T13:07:51.454Z,14.60
2022-12-18T13:10:20.557Z,12.77
2022-12-18T13:13:09.037Z,13.18
2022-12-18T13:15:41.968Z,13.75
2022-12-18T13:18:17.152Z,15.98
2022-12-18T13:20:55.304Z,14.18
2022-12-18T13:23:29.266Z,15.27
2022-12-18T13:26:10.916Z,15.20
2022-12-18T13:28:49.604Z,14.50
2022-12-18T13:31:42.354Z,14.02
2022-12-18T13:34:28.284Z,17.45
2022-12-18T13:37:23.520Z,14.18
2022-12-18T13:39:50.837Z,16.02
2022-12-18T13:42:36.092Z,13.10
2022-12-18T13:45:03.539Z,14.87
2022-12-18T13:47:38.405Z,14.43
2022-12-18T13:50:32.492Z,11.93
2022-12-18T13:53:03.939Z,13.52
2022-12-18T13:55:30.681Z,14.90
2022-12-18T13:58:07.423Z,14.18
2022-12-18T14:00:34.423Z,16.65
2022-12-18T14:03:01.873Z,14.02
2022-12-18T14:05:35.607Z,14.95
2022-12-18T14:08:12.276Z,15.65
2022-12-18T14:10:48.405Z,14.55
2022-12-18T14:13:30.343Z,8.63
2022-12-18T14:16:00.949Z,14.38
2022-12-18T14:18:46.060Z,15.27
2022-12-18T14:21:38.985Z,10.95
2022-12-18T14:24:12.338Z,15.73
2022-12-18T14:26:39.623Z,16.13
2022-12-18T14:29:35.764Z,15.27
2022-12-18T14:32:21.660Z,14.77
2022-12-18T14:34:50.622Z,15.05
2022-12-18T14:37:22.684Z,14.52
2022-12-18T14:40:10.964Z,14.27
2022-12-18T14:42:38.811Z,15.18
2022-12-18T14:45:43.827Z,14.88
2022-12-18T14:48:34.072Z,15.50
2022-12-18T14:51:17.839Z,15.48
2022-12-18T14:53:52.176Z,15.98
2022-12-18T14:56:24.478Z,15.63
2022-12-18T14:58:56.078Z,14.45
2022-12-18T15:01:28.568Z,15.63
2022-12-18T15:03:57.034Z,15.38
2022-12-18T15:06:37.091Z,16.42
2022-12-18T15:09:26.222Z,16.70
2022-12-18T15:12:00.946Z,12.57
2022-12-18T15:14:41.206Z,13.80
2022-12-18T15:17:20.635Z,13.68
2022-12-18T15:19:49.380Z,15.88
2022-12-18T15:22:25.875Z,16.27
2022-12-18T15:24:56.250Z,14.27
2022-12-18T15:27:36.756Z,13.43
2022-12-18T15:30:11.500Z,15.15
2022-12-18T15:32:40.095Z,16.00
2022-12-18T15:35:09.812Z,16.20
2022-12-18T15:37:36.528Z,16.30
2022-12-18T15:40:06.015Z,16.50
2022-12-18T15:42:51.561Z,11.90
2022-12-18T15:45:20.762Z,17.35
2022-12-18T15:47:52.479Z,14.98
2022-12-18T15:50:19.319Z,17.35
2022-12-18T15:52:48.501Z,15.98
2022-12-18T15:55:36.768Z,18.83
2022-12-18T15:58:04.878Z,17.55
2022-12-18T16:00:32.696Z,14.35
2022-12-18T16:02:59.645Z,15.85
2022-12-18T16:05:28.041Z,17.70
2022-12-18T16:07:57.329Z,15.60
2022-12-18T16:10:25.902Z,13.05
2022-12-18T16:12:52.952Z,14.10
2022-12-18T16:15:24.231Z,16.52
2022-12-18T16:17:52.616Z,13.10
2022-12-18T16:20:21.765Z,14.30
2022-12-18T16:22:51.049Z,17.92
2022-12-18T16:25:20.387Z,17.88
2022-12-18T16:27:47.687Z,14.65
2022-12-18T16:30:18.000Z,15.45
2022-12-18T16:32:45.233Z,16.88
2022-12-18T16:35:14.092Z,19.13
2022-12-18T16:37:41.655Z,14.45
2022-12-18T16:40:12.870Z,18.55
2022-12-18T16:42:41.109Z,12.18
2022-12-18T16:45:10.020Z,13.80
2022-12-18T16:47:36.781Z,17.98
2022-12-18T16:50:04.478Z,16.15
2022-12-18T16:52:31.284Z,15.18
2022-12-18T16:54:57.928Z,18.48
2022-12-18T16:57:25.537Z,15.43
2022-12-18T16:59:52.996Z,17.38
2022-12-18T17:02:23.631Z,19.00
2022-12-18T17:04:53.948Z,16.08
2022-12-18T17:07:20.684Z,16.27
2022-12-18T17:09:47.438Z,18.50
2022-12-18T17:12:14.145Z,19.55
2022-12-18T17:14:40.866Z,20.52
2022-12-18T17:17:25.386Z,15.68
2022-12-18T17:19:52.714Z,15.18
2022-12-18T17:22:20.688Z,19.63
2022-12-18T17:24:50.154Z,19.13
2022-12-18T17:27:16.940Z,18.73
2022-12-18T17:29:48.298Z,17.10
2022-12-18T17:32:18.225Z,10.85
2022-12-18T17:34:45.044Z,16.65
2022-12-18T17:37:14.746Z,14.60
2022-12-18T17:39:42.099Z,18.70
2022-12-18T17:42:15.557Z,17.08
2022-12-18T17:44:43.314Z,19.60
2022-12-18T17:47:12.037Z,16.73
2022-12-18T17:49:41.095Z,20.88
2022-12-18T17:52:08.018Z,19.10
2022-12-18T17:54:35.530Z,16.17
2022-12-18T17:57:02.212Z,18.08
2022-12-18T17:59:29.230Z,18.98
2022-12-18T18:01:56.009Z,21.38
2022-12-18T18:04:22.872Z,19.38
2022-12-18T18:06:49.638Z,19.02
2022-12-18T18:09:17.201Z,19.58
2022-12-18T18:12:04.055Z,15.52
2022-12-18T18:14:31.346Z,15.32
2022-12-18T18:17:02.001Z,18.25
2022-12-18T18:19:32.691Z,20.55
2022-12-18T18:22:02.980Z,19.30
2022-12-18T18:24:33.095Z,21.00
2022-12-18T18:27:02.278Z,18.17
2022-12-18T18:29:32.133Z,16.65
2022-12-18T18:31:59.660Z,15.85
2022-12-18T18:34:32.697Z,17.27
2022-12-18T18:37:00.953Z,11.38
2022-12-18T18:39:28.374Z,18.10
2022-12-18T18:41:55.603Z,17.75
2022-12-18T18:44:25.673Z,20.58
2022-12-18T18:46:56.882Z,21.73
2022-12-18T18:49:27.096Z,20.60
2022-12-18T18:51:57.168Z,21.50
2022-12-18T18:54:26.867Z,23.05
2022-12-18T18:57:19.333Z,17.58
2022-12-18T18:59:42.586Z,21.98
2022-12-18T19:02:15.132Z,21.13
2022-12-18T19:04:46.097Z,21.42
2022-12-18T19:07:29.341Z,19.65
2022-12-18T19:09:56.760Z,21.52
2022-12-18T19:12:41.985Z,17.73
2022-12-18T19:15:13.809Z,22.20
2022-12-18T19:17:40.982Z,18.08
2022-12-18T19:20:09.258Z,20.60
2022-12-18T19:22:39.020Z,22.20
2022-12-18T19:25:06.512Z,19.08
2022-12-18T19:27:38.458Z,19.17
2022-12-18T19:30:05.677Z,20.75
2022-12-18T19:32:33.476Z,18.95
2022-12-18T19:35:00.264Z,18.35
2022-12-18T19:37:29.947Z,20.58
2022-12-18T19:39:56.744Z,20.05
2022-12-18T19:42:29.411Z,18.45
2022-12-18T19:45:00.711Z,18.50
2022-12-18T19:47:27.427Z,22.67
2022-12-18T19:49:54.157Z,16.83
2022-12-18T19:52:20.894Z,20.02
2022-12-18T19:54:47.871Z,18.25
2022-12-18T19:57:14.696Z,18.08
2022-12-18T19:59:43.901Z,20.13
2022-12-18T20:02:13.960Z,21.85
2022-12-18T20:04:43.408Z,18.92
2022-12-18T20:07:10.324Z,19.05
2022-12-18T20:09:37.173Z,20.52
2022-12-18T20:12:04.754Z,19.85
2022-12-18T20:14:33.712Z,18.35
2022-12-18T20:17:02.622Z,19.80
2022-12-18T20:19:29.686Z,16.35
2022-12-18T20:21:59.123Z,19.35
2022-12-18T20:24:27.042Z,19.73
2022-12-18T20:26:54.859Z,18.02
2022-12-18T20:29:21.710Z,22.08
2022-12-18T20:31:48.451Z,21.40
2022-12-18T20:34:15.299Z,20.55
2022-12-18T20:36:44.999Z,19.58
2022-12-18T20:39:12.330Z,19.17
2022-12-18T20:41:41.342Z,23.05
2022-12-18T20:44:21.793Z,19.90
2022-12-18T20:46:50.417Z,22.35
2022-12-18T20:49:17.406Z,18.30
2022-12-18T20:51:51.354Z,20.52
2022-12-18T20:54:20.359Z,19.98
2022-12-18T20:56:49.451Z,19.80
2022-12-18T20:59:16.568Z,21.15
2022-12-18T21:01:48.423Z,19.85
2022-12-18T21:04:17.529Z,19.50
2022-12-18T21:06:49.401Z,18.77
2022-12-18T21:09:18.376Z,18.75
2022-12-18T21:12:05.525Z,18.13
2022-12-18T21:14:32.225Z,14.05
2022-12-18T21:17:02.736Z,21.27
2022-12-18T21:19:29.903Z,21.00
2022-12-18T21:21:57.561Z,20.15
2022-12-18T21:24:25.468Z,21.33
2022-12-18T21:26:55.529Z,20.58
2022-12-18T21:29:24.815Z,19.20
2022-12-18T21:31:54.227Z,20.88
2022-12-18T21:34:25.514Z,21.73
2022-12-18T21:36:53.080Z,20.05
2022-12-18T21:39:20.122Z,22.10
2022-12-18T21:42:08.565Z,22.20
2022-12-18T21:47:22.216Z,20.38
2022-12-18T21:49:54.752Z,23.73
2022-12-18T21:52:41.844Z,21.52
2022-12-18T21:55:10.134Z,21.90
2022-12-18T21:57:39.230Z,22.52
2022-12-18T22:00:07.759Z,19.70
2022-12-18T22:02:34.601Z,20.88
2022-12-18T22:05:01.667Z,21.20
2022-12-18T22:07:29.223Z,20.63
2022-12-18T22:09:56.031Z,22.10
2022-12-18T22:12:36.573Z,21.60
2022-12-18T22:15:20.286Z,21.95
2022-12-18T22:17:59.971Z,22.55
2022-12-18T22:20:33.077Z,21.02
2022-12-18T22:23:01.027Z,20.48
2022-12-18T22:25:33.108Z,21.60
2022-12-18T22:28:40.012Z,23.92
2022-12-18T22:31:12.900Z,19.63
2022-12-18T22:33:39.586Z,22.08
2022-12-18T22:36:07.319Z,20.67
2022-12-18T22:38:34.567Z,15.00
2022-12-18T22:41:03.800Z,22.50
2022-12-18T22:43:30.514Z,21.35
2022-12-18T22:45:57.806Z,22.20
2022-12-18T22:48:24.588Z,22.55
2022-12-18T22:50:51.400Z,21.80
2022-12-18T22:53:22.629Z,19.58
2022-12-18T22:55:49.340Z,23.00
2022-12-18T22:58:16.001Z,22.75
2022-12-18T23:00:42.741Z,23.75
2022-12-18T23:03:09.747Z,23.17
2022-12-18T23:05:36.588Z,21.77
2022-12-18T23:08:03.306Z,22.23
2022-12-18T23:10:30.066Z,23.00
2022-12-18T23:12:59.363Z,20.38
2022-12-18T23:15:28.788Z,23.35
2022-12-18T23:17:59.025Z,23.05
2022-12-18T23:20:26.966Z,22.58
2022-12-18T23:22:54.172Z,21.65
2022-12-18T23:25:20.890Z,21.20
2022-12-18T23:27:47.665Z,22.20
2022-12-18T23:30:16.729Z,22.98
2022-12-18T23:32:43.424Z,23.67
2022-12-18T23:35:10.149Z,18.80
2022-12-18T23:37:58.708Z,22.45
2022-12-18T23:40:26.430Z,20.73
2022-12-18T23:42:53.128Z,23.17
2022-12-18T23:45:19.788Z,17.60
2022-12-18T23:47:50.950Z,22.13
2022-12-18T23:50:18.124Z,23.38
2022-12-18T23:52:47.017Z,20.35
2022-12-18T23:55:13.704Z,21.65
2022-12-18T23:57:42.522Z,22.30
